Latest Weather Observations for Cocos Island

IDW60801

Issued at 2:02 pm WST Thursday 29 January 2015 (issued every 30 minutes, with the page automatically refreshed every 10 minutes)

About weather observations | Map of weather stations | Latest weather observations for WA | Other Formats
Station Details ID: 200284 Name: COCOS ISLAND AIRPORT Lat: -12.19 Lon: 96.83 Height: 3.0 m
Data from the previous 72 hours. | See also: Recent months at Cocos Island
Date/Time
WST
Temp
°C
App
Temp
°C
Dew
Point
Rel
Hum
%
Delta-T
°C
Wind Press
QNH
hPa
Press
MSL
hPa
Rain
since 9 am
mm
Dir
 
Spd
km/h
Gust
km/h
Spd
kts
Gust
kts
29/01:30pm 30.4 35.1 25.6 75 3.4 ENE 11 15 6 8 1011.0 - 0.0
29/01:00pm 29.3 33.1 24.7 76 3.2 N 13 15 7 8 1011.5 - 0.0
29/12:30pm 29.1 31.1 23.9 73 3.6 N 20 30 11 16 1011.9 - 0.0
29/12:00pm 28.7 32.7 25.0 80 2.6 NE 13 17 7 9 1011.9 - 0.0
29/11:30am 29.9 33.1 24.9 74 3.5 E 17 20 9 11 1012.2 - 0.0
29/10:30am 29.7 33.3 25.0 76 3.3 E 15 19 8 10 1011.7 - 6.0
29/10:00am 30.3 34.7 25.0 73 3.7 E 11 15 6 8 1011.7 - 6.0
29/09:00am 29.4 33.8 25.1 77 3.0 E 11 15 6 8 1011.2 - 6.0
29/08:30am 28.6 32.2 24.4 78 2.9 E 13 15 7 8 1010.7 - 6.0
29/08:00am 27.8 32.7 25.2 86 1.8 E 9 11 5 6 1010.3 1010.3 6.0
29/07:00am 27.0 31.9 24.7 87 1.6 ESE 7 9 4 5 1009.7 - 6.0
29/06:30am 26.8 31.8 24.8 89 1.4 ESE 7 9 4 5 1009.4 - 6.0
29/06:00am 27.4 32.4 24.8 86 1.8 E 7 9 4 5 1009.2 - 6.0
29/05:30am 27.3 32.1 24.4 84 2.0 E 7 9 4 5 1009.0 - 6.0
29/05:00am 26.3 30.9 24.1 88 1.5 SE 7 9 4 5 1008.9 1008.9 6.0
29/04:30am 27.3 31.2 24.3 84 2.1 ESE 11 13 6 7 1008.9 - 6.0
29/04:00am 27.5 31.4 24.2 82 2.3 E 11 15 6 8 1009.1 - 6.0
29/03:30am 27.7 32.3 25.3 87 1.7 ESE 11 13 6 7 1009.5 - 6.0
29/03:00am 27.9 31.9 25.0 84 2.0 E 13 17 7 9 1009.8 - 6.0
29/02:30am 27.8 32.2 25.1 85 1.9 SE 11 13 6 7 1010.3 - 6.0
29/02:00am 27.8 32.3 25.2 86 1.8 ESE 11 13 6 7 1010.6 1010.6 6.0
29/01:30am 27.7 32.7 25.4 87 1.6 SE 9 13 5 7 1010.8 - 6.0
29/01:00am 27.6 32.5 25.2 87 1.7 SE 9 13 5 7 1011.0 - 6.0
29/12:30am 27.6 32.1 25.2 87 1.7 ESE 11 13 6 7 1011.0 - 6.0
29/12:00am 27.6 32.0 25.0 86 1.8 ESE 11 15 6 8 1010.9 - 6.0
 
Date/Time
WST
Temp
°C
App
Temp
°C
Dew
Point
Rel
Hum
%
Delta-T
°C
Wind Press
QNH
hPa
Press
MSL
hPa
Rain
since 9 am
mm
Dir
 
Spd
km/h
Gust
km/h
Spd
kts
Gust
kts
28/11:30pm 27.6 31.0 25.2 87 1.7 ESE 17 19 9 10 1010.7 - 6.0
28/11:00pm 27.6 31.3 24.6 84 2.1 SSE 13 17 7 9 1010.5 1010.5 6.0
28/10:30pm 27.5 32.2 24.9 86 1.8 SSE 9 11 5 6 1010.2 - 6.0
28/10:00pm 27.8 32.1 24.9 84 2.0 SE 11 13 6 7 1009.9 - 6.0
28/09:30pm 27.0 31.5 24.6 87 1.7 S 9 9 5 5 1009.6 - 6.0
28/09:00pm 27.7 32.5 24.5 83 2.2 SE 7 9 4 5 1009.5 - 6.0
28/08:30pm 27.2 31.1 24.3 84 2.0 S 11 13 6 7 1009.4 - 6.0
28/08:00pm 27.4 32.4 24.5 84 2.0 S 6 7 3 4 1009.0 1009.0 6.0
28/07:30pm 27.4 31.7 24.2 83 2.2 SSW 9 13 5 7 1008.9 - 6.0
28/07:00pm 28.1 31.9 24.1 79 2.8 SSW 11 13 6 7 1008.6 - 6.0
28/06:30pm 27.9 34.3 24.9 84 2.1 CALM 0 2 0 1 1008.2 - 6.0
28/06:00pm 26.8 31.8 24.5 87 1.6 SW 6 11 3 6 1008.0 - 6.0
28/05:53pm 26.6 30.5 24.3 87 1.6 WSW 11 15 6 8 1008.0 - 6.0
28/05:39pm 26.8 28.8 22.2 76 3.1 W 15 26 8 14 1008.0 - 5.8
28/05:34pm 27.3 29.4 24.1 83 2.2 NNE 20 28 11 15 1008.3 - 1.6
28/05:30pm 28.5 30.9 24.6 79 2.7 NNW 20 26 11 14 1008.0 - 0.2
28/05:24pm 29.5 33.9 24.5 74 3.5 N 9 15 5 8 1008.0 - 0.2
28/05:00pm 30.2 34.3 24.5 71 4.0 N 11 15 6 8 1008.0 1008.0 0.2
28/04:30pm 29.5 32.9 24.0 72 3.8 N 13 17 7 9 1008.2 - 0.2
28/04:00pm 29.5 33.6 25.7 80 2.7 N 15 20 8 11 1008.4 - 0.2
28/03:30pm 29.9 33.6 24.6 73 3.7 NNE 13 19 7 10 1008.6 - 0.0
28/03:00pm 30.8 34.5 24.5 69 4.4 NNE 13 19 7 10 1008.8 - 0.0
28/02:30pm 30.3 33.3 24.0 69 4.4 NNE 15 20 8 11 1009.2 - 0.0
28/02:00pm 30.4 33.9 24.8 72 3.9 NNE 15 20 8 11 1009.5 1009.5 0.0
28/01:30pm 30.4 33.6 24.4 70 4.2 NNE 15 20 8 11 1009.8 - 0.0
28/01:00pm 30.9 34.8 24.8 70 4.3 NE 13 17 7 9 1010.0 - 0.0
28/12:30pm 30.7 34.7 25.0 71 4.0 NE 13 19 7 10 1010.4 - 0.0
28/12:00pm 30.6 34.9 24.3 69 4.4 ENE 9 13 5 7 1010.7 - 0.0
28/11:30am 30.2 34.4 24.8 73 3.8 NE 11 15 6 8 1010.8 - 0.0
28/11:00am 30.2 35.1 25.2 74 3.5 NE 9 11 5 6 1010.9 1010.9 0.0
28/10:30am 29.1 33.1 24.4 76 3.3 NE 11 15 6 8 1010.9 - 0.0
28/10:00am 28.1 30.8 24.8 82 2.3 N 19 22 10 12 1011.0 - 0.0
28/09:30am 29.6 34.5 25.2 77 3.1 E 9 11 5 6 1010.8 - 0.0
28/09:00am 29.2 34.6 25.2 79 2.8 ESE 6 7 3 4 1010.7 - 0.0
28/08:30am 28.1 33.5 25.1 84 2.1 E 6 7 3 4 1010.4 - 0.0
28/08:00am 26.7 31.7 24.5 88 1.5 SE 6 7 3 4 1010.1 1010.1 0.0
28/07:30am 26.7 30.5 24.7 89 1.4 E 13 20 7 11 1009.6 - 0.0
28/07:00am 26.6 31.7 25.0 91 1.1 E 7 9 4 5 1009.4 - 0.0
28/06:30am 26.4 31.6 24.8 91 1.1 SE 6 7 3 4 1009.1 - 0.0
28/06:00am 26.2 31.1 24.6 91 1.1 SE 7 7 4 4 1008.8 - 0.0
28/05:30am 26.3 31.4 24.6 90 1.2 ESE 6 7 3 4 1008.6 - 0.0
28/05:00am 27.2 31.9 24.9 87 1.6 ESE 9 11 5 6 1008.7 1008.7 0.0
28/04:30am 27.3 31.5 24.7 86 1.8 ESE 11 13 6 7 1008.9 - 0.0
28/04:00am 26.9 32.0 24.9 89 1.4 SE 7 11 4 6 1009.2 - 0.0
28/03:30am 27.2 31.9 24.9 87 1.6 SE 9 11 5 6 1009.3 - 0.0
28/03:00am 27.2 32.0 25.1 88 1.5 ESE 9 13 5 7 1009.5 - 0.0
28/02:30am 27.3 32.2 25.2 88 1.5 ESE 9 13 5 7 1009.7 - 0.0
28/02:00am 27.3 32.0 25.0 87 1.6 ESE 9 13 5 7 1009.9 1009.9 0.0
28/01:30am 27.4 32.2 25.1 87 1.6 E 9 13 5 7 1010.3 - 0.0
28/01:00am 27.5 32.3 25.1 87 1.7 ESE 9 15 5 8 1010.5 - 0.0
28/12:30am 27.6 32.1 25.2 87 1.7 E 11 15 6 8 1010.5 - 0.0
28/12:00am 27.5 31.4 24.9 86 1.8 ESE 13 17 7 9 1010.6 - 0.0
 
Date/Time
WST
Temp
°C
App
Temp
°C
Dew
Point
Rel
Hum
%
Delta-T
°C
Wind Press
QNH
hPa
Press
MSL
hPa
Rain
since 9 am
mm
Dir
 
Spd
km/h
Gust
km/h
Spd
kts
Gust
kts
27/11:30pm 27.7 31.3 25.0 85 1.9 ESE 15 19 8 10 1010.6 - 0.0
27/11:00pm 27.6 31.2 25.0 86 1.8 SE 15 19 8 10 1010.3 1010.3 0.0
27/10:30pm 27.6 31.1 24.9 85 1.9 SE 15 19 8 10 1010.3 - 0.0
27/10:00pm 27.5 31.4 24.8 85 1.9 SSE 13 19 7 10 1010.2 - 0.0
27/09:30pm 27.6 31.1 24.9 85 1.9 SE 15 17 8 9 1010.0 - 0.0
27/09:00pm 27.2 31.1 24.3 84 2.0 SSE 11 15 6 8 1009.7 - 0.0
27/08:30pm 27.5 31.7 24.8 85 1.9 SE 11 15 6 8 1009.6 - 0.0
27/08:00pm 27.7 31.2 24.8 84 2.0 SE 15 19 8 10 1009.3 1009.3 0.0
27/07:30pm 28.3 31.9 25.0 82 2.3 ESE 15 19 8 10 1008.9 - 0.0
27/07:00pm 28.5 31.5 24.6 79 2.7 SE 17 20 9 11 1008.6 - 0.0
27/06:30pm 28.4 31.1 24.7 80 2.6 SE 19 24 10 13 1008.5 - 0.0
27/06:00pm 28.8 32.0 24.3 76 3.1 SE 15 20 8 11 1008.2 - 0.0
27/05:30pm 28.2 31.3 24.8 82 2.4 SE 17 20 9 11 1008.3 - 0.0
27/05:00pm 28.0 30.7 24.7 82 2.3 ESE 19 22 10 12 1008.3 1008.3 0.0
27/04:30pm 28.3 31.3 25.2 83 2.2 ESE 19 24 10 13 1008.5 - 0.0
27/04:00pm 29.1 32.3 25.6 81 2.5 SE 19 22 10 12 1008.7 - 0.0
27/03:30pm 30.4 35.2 24.5 70 4.1 E 7 13 4 7 1009.0 - 0.0
27/03:00pm 30.1 33.5 24.7 73 3.8 E 15 19 8 10 1009.5 - 0.0
27/02:30pm 29.1 32.3 24.4 76 3.3 SE 15 19 8 10 1009.9 - 0.0
27/02:00pm 29.8 33.5 23.9 70 4.1 SE 11 15 6 8 1009.7 1009.7 0.0
27/01:30pm 29.7 33.3 24.4 73 3.7 E 13 15 7 8 1010.1 - 0.0
27/01:00pm 29.3 32.3 24.7 76 3.2 E 17 20 9 11 1010.4 - 0.0
27/12:30pm 29.1 34.4 25.3 80 2.7 ENE 7 9 4 5 1010.5 - 0.0
27/12:00pm 28.1 32.0 24.2 79 2.7 SE 11 15 6 8 1010.7 - 0.0
27/11:30am 28.1 31.0 25.1 84 2.1 E 19 26 10 14 1010.8 - 0.0
27/11:00am 30.1 33.7 24.4 71 4.0 SE 13 17 7 9 1010.8 1010.8 7.8
27/10:30am 29.8 33.3 24.2 72 3.9 SE 13 17 7 9 1010.9 - 7.8
27/10:00am 29.7 32.9 24.4 73 3.7 SE 15 19 8 10 1010.8 - 7.6
27/09:30am 28.7 32.0 23.9 75 3.3 ESE 13 17 7 9 1010.8 - 7.6
27/09:00am 28.7 32.2 24.2 76 3.1 ESE 13 17 7 9 1010.5 - 7.6
27/08:30am 28.3 31.6 23.8 76 3.1 ESE 13 19 7 10 1010.1 - 7.6
27/08:00am 27.8 30.2 23.7 78 2.8 ESE 17 24 9 13 1009.7 1009.7 7.6
27/07:30am 27.4 29.4 23.6 80 2.6 ESE 19 22 10 12 1009.1 - 7.6
27/07:00am 27.1 30.0 23.8 82 2.3 SE 15 20 8 11 1009.0 - 7.6
27/06:30am 27.1 29.9 23.6 81 2.4 SE 15 20 8 11 1008.9 - 7.6
27/06:00am 27.1 30.4 23.8 82 2.3 SE 13 17 7 9 1008.7 - 7.6
27/05:30am 27.3 29.7 23.7 81 2.5 ESE 17 20 9 11 1008.7 - 7.6
27/05:00am 27.4 30.0 23.9 81 2.4 SE 17 22 9 12 1008.8 1008.8 7.6
27/04:30am 27.3 30.2 23.8 81 2.4 SE 15 22 8 12 1008.8 - 7.6
27/04:00am 27.3 30.0 23.4 79 2.7 SSE 15 19 8 10 1009.0 - 7.6
27/03:30am 27.2 29.9 23.4 80 2.6 SSE 15 20 8 11 1009.3 - 7.6
27/03:00am 27.2 29.7 23.2 79 2.7 SSE 15 19 8 10 1009.8 - 7.6
27/02:30am 27.4 30.1 24.2 83 2.2 SE 17 20 9 11 1010.2 - 7.6
27/02:00am 26.8 30.2 24.0 84 1.9 SSE 13 19 7 10 1010.4 1010.4 7.6
27/01:30am 26.2 31.1 24.6 91 1.1 SSE 7 11 4 6 1010.9 - 7.6
27/01:00am 26.1 28.6 24.4 90 1.2 S 19 22 10 12 1011.0 - 7.6
27/12:30am 25.9 28.7 24.3 91 1.1 SE 17 22 9 12 1012.1 - 7.6
27/12:00am 25.5 27.7 23.9 91 1.1 SSE 19 26 10 14 1012.4 - 7.6
 
Date/Time
WST
Temp
°C
App
Temp
°C
Dew
Point
Rel
Hum
%
Delta-T
°C
Wind Press
QNH
hPa
Press
MSL
hPa
Rain
since 9 am
mm
Dir
 
Spd
km/h
Gust
km/h
Spd
kts
Gust
kts
26/11:58pm 25.4 27.4 23.9 91 1.0 SSE 20 26 11 14 1012.5 - 7.6
26/11:30pm 26.0 28.7 24.7 92 0.9 SE 19 30 10 16 1012.3 - 5.8
26/11:00pm 27.0 30.0 24.7 87 1.6 ESE 17 26 9 14 1012.0 1012.0 0.8
26/10:57pm 27.1 29.8 24.8 87 1.6 E 19 24 10 13 1011.9 - 0.6
26/10:30pm 28.2 31.8 23.7 76 3.1 SE 11 15 6 8 1011.7 - 0.0
26/10:00pm 28.2 31.6 23.4 75 3.3 ESE 11 15 6 8 1011.4 - 0.0
26/09:30pm 28.1 31.6 23.6 76 3.1 ESE 11 15 6 8 1011.2 - 0.0
26/09:00pm 28.3 31.7 23.3 74 3.4 ESE 11 15 6 8 1011.3 - 0.0
26/08:30pm 28.3 31.4 23.5 75 3.3 ESE 13 17 7 9 1011.0 - 0.0
26/08:00pm 28.4 31.5 23.6 75 3.3 ESE 13 17 7 9 1010.7 1010.7 0.0
26/07:30pm 28.6 31.3 23.4 73 3.6 ESE 15 17 8 9 1010.3 - 0.0
26/07:00pm 28.9 31.6 23.4 72 3.8 ESE 15 19 8 10 1010.1 - 0.0
26/06:30pm 28.9 31.2 23.5 72 3.7 ESE 17 20 9 11 1009.9 - 0.0
26/06:00pm 29.2 32.1 23.9 73 3.7 ESE 15 20 8 11 1009.7 - 0.0
26/05:30pm 29.5 31.9 23.7 71 4.0 ESE 17 20 9 11 1009.5 - 0.0
26/05:00pm 30.1 32.7 23.3 67 4.7 SE 15 20 8 11 1009.7 1009.7 0.0
26/04:30pm 30.2 32.5 22.7 64 5.1 ESE 15 20 8 11 1010.1 - 0.0
26/04:00pm 29.8 32.5 23.4 68 4.4 ESE 15 20 8 11 1010.1 - 0.0

Other Formats:

Comma delimited format used in spreadsheet applications
http://www.bom.gov.au/fwo/IDW60801/IDW60801.96996.axf

JavaScript Object Notation format (JSON) in row-major order
http://www.bom.gov.au/fwo/IDW60801/IDW60801.96996.json